Time;durP1;ratioP1;P1;durP2;ratioP2;P2;SDS_P1;SDS_P2;PMS_P1;PMS_P2;Temp;Humidity;BMP_temperature;BMP_pressure;BME280_temperature;BME280_humidity;BME280_pressure;Samples;Min_cycle;Max_cycle;Signal;HPM_P1;HPM_P2
2022/03/04 00:01:55;;;;;;;28.37;16.33;;;3.60;99.90;;;;;;5009698;28;20026;-70
2022/03/04 00:04:21;;;;;;;26.20;16.33;;;3.70;99.90;;;;;;5013450;28;20026;-71
2022/03/04 00:06:46;;;;;;;26.60;16.00;;;3.60;98.20;;;;;;5013177;28;20135;-70
2022/03/04 00:09:12;;;;;;;23.17;15.97;;;3.90;99.60;;;;;;5010824;28;20104;-70
2022/03/04 00:11:38;;;;;;;32.67;17.87;;;3.50;99.90;;;;;;5013144;28;20402;-69
2022/03/04 00:14:03;;;;;;;28.50;17.40;;;3.60;98.50;;;;;;5012617;28;20022;-69
2022/03/04 00:16:29;;;;;;;26.07;15.37;;;3.60;99.90;;;;;;5012530;28;20026;-69
2022/03/04 00:19:08;;;;;;;29.53;17.27;;;;;;;;;;5011736;28;20021;-71
2022/03/04 00:21:34;;;;;;;25.67;15.43;;;;;;;;;;5013326;28;20033;-69
2022/03/04 00:24:00;;;;;;;26.67;17.30;;;3.40;95.20;;;;;;5011794;28;20037;-69
2022/03/04 00:26:26;;;;;;;24.43;15.47;;;;;;;;;;5012944;28;20048;-69
2022/03/04 00:28:52;;;;;;;26.17;17.67;;;3.60;99.90;;;;;;5012801;28;20034;-69
2022/03/04 00:31:18;;;;;;;25.37;16.37;;;;;;;;;;5013442;28;20335;-69
2022/03/04 00:33:43;;;;;;;28.83;17.30;;;3.50;99.90;;;;;;5012838;28;20423;-69
2022/03/04 00:36:09;;;;;;;29.47;17.77;;;3.30;99.90;;;;;;5012968;28;20065;-69
2022/03/04 00:38:35;;;;;;;29.43;17.47;;;;;;;;;;5012435;28;20025;-70
2022/03/04 00:41:00;;;;;;;33.37;18.03;;;3.20;99.90;;;;;;5012634;28;20030;-69
2022/03/04 00:43:26;;;;;;;31.63;18.53;;;;;;;;;;5012984;28;20033;-70
2022/03/04 00:45:52;;;;;;;28.60;15.33;;;3.30;99.90;;;;;;5012345;28;20042;-69
2022/03/04 00:48:18;;;;;;;29.37;17.23;;;;;;;;;;5012931;28;20033;-70
2022/03/04 00:50:43;;;;;;;31.20;16.53;;;3.20;99.90;;;;;;5012659;28;20034;-71
2022/03/04 00:53:09;;;;;;;26.17;16.17;;;3.20;99.90;;;;;;5006917;28;20428;-70
2022/03/04 00:55:38;;;;;;;27.23;15.97;;;3.30;99.90;;;;;;4993225;28;20066;-70
2022/03/04 00:58:07;;;;;;;27.47;16.33;;;3.20;96.70;;;;;;4992804;28;20029;-70
2022/03/04 01:00:35;;;;;;;33.30;18.80;;;3.20;97.20;;;;;;4993071;28;20026;-70
2022/03/04 01:03:02;;;;;;;28.33;16.17;;;3.10;99.90;;;;;;4992545;28;20023;-70
2022/03/04 01:05:28;;;;;;;27.53;17.53;;;2.90;99.90;;;;;;4993006;28;20039;-70
2022/03/04 01:07:54;;;;;;;29.07;15.63;;;2.90;99.90;;;;;;4994194;28;20034;-69
2022/03/04 01:10:19;;;;;;;26.60;16.57;;;2.90;99.90;;;;;;5012503;28;20160;-69
2022/03/04 01:12:45;;;;;;;27.87;16.73;;;3.10;99.90;;;;;;5011597;28;20077;-69
2022/03/04 01:15:11;;;;;;;24.60;17.17;;;3.10;99.90;;;;;;5011918;28;20034;-69
2022/03/04 01:17:37;;;;;;;33.73;20.07;;;;;;;;;;4998646;28;20030;-68
2022/03/04 01:20:04;;;;;;;27.67;17.13;;;2.50;99.90;;;;;;4992155;28;20634;-68
2022/03/04 01:22:30;;;;;;;36.30;17.90;;;3.00;99.90;;;;;;4992256;28;20026;-69
2022/03/04 01:24:55;;;;;;;32.83;19.30;;;2.80;99.90;;;;;;4992041;28;20034;-69
2022/03/04 01:27:21;;;;;;;32.60;18.03;;;;;;;;;;4992670;28;20531;-69
2022/03/04 01:29:47;;;;;;;28.17;15.47;;;2.80;99.90;;;;;;5007185;28;20038;-69
2022/03/04 01:32:13;;;;;;;25.27;16.47;;;;;;;;;;5000448;28;20046;-69
2022/03/04 01:34:39;;;;;;;32.33;19.27;;;2.80;98.40;;;;;;4992408;28;20318;-69
2022/03/04 01:37:06;;;;;;;29.30;17.53;;;2.70;99.90;;;;;;4974115;28;20487;-69
2022/03/04 01:39:32;;;;;;;32.77;16.93;;;2.70;99.90;;;;;;4992392;28;20027;-69
2022/03/04 01:41:58;;;;;;;28.27;15.40;;;;;;;;;;4991686;28;20032;-69
2022/03/04 01:44:24;;;;;;;24.60;15.53;;;;;;;;;;4992017;28;20076;-69
2022/03/04 01:46:49;;;;;;;28.03;16.13;;;2.70;99.90;;;;;;4998106;28;20407;-69
2022/03/04 01:49:15;;;;;;;27.13;15.57;;;2.60;99.90;;;;;;5011787;28;20022;-69
2022/03/04 01:51:41;;;;;;;29.43;17.17;;;;;;;;;;5011114;28;20032;-68
2022/03/04 01:54:07;;;;;;;27.67;17.63;;;;;;;;;;5006814;28;20030;-68
2022/03/04 01:56:33;;;;;;;26.10;15.13;;;2.80;99.90;;;;;;4992004;28;20411;-69
2022/03/04 01:58:59;;;;;;;31.03;17.80;;;;;;;;;;4991246;28;20038;-69
2022/03/04 02:01:25;;;;;;;30.97;18.30;;;;;;;;;;4992021;28;20109;-69
2022/03/04 02:03:51;;;;;;;28.47;15.47;;;2.60;99.90;;;;;;4991378;28;20064;-69
2022/03/04 02:06:17;;;;;;;31.10;18.43;;;2.60;99.90;;;;;;5000715;28;20069;-69
2022/03/04 02:08:42;;;;;;;28.27;18.07;;;;;;;;;;5011016;28;20103;-69
2022/03/04 02:11:08;;;;;;;30.07;17.37;;;2.50;99.90;;;;;;5010835;28;20053;-68
2022/03/04 02:13:35;;;;;;;34.13;17.63;;;;;;;;;;5011224;28;20032;-69
2022/03/04 02:16:00;;;;;;;30.87;17.13;;;2.50;99.90;;;;;;5010689;28;20048;-69
2022/03/04 02:18:26;;;;;;;26.80;16.77;;;;;;;;;;5011257;28;20495;-68
2022/03/04 02:20:53;;;;;;;29.53;16.37;;;2.40;99.90;;;;;;5004852;28;20034;-69
2022/03/04 02:23:20;;;;;;;32.30;18.53;;;2.50;99.90;;;;;;4991913;28;20057;-68
2022/03/04 02:25:48;;;;;;;35.47;19.30;;;2.40;99.90;;;;;;4990384;28;20034;-68
2022/03/04 02:28:14;;;;;;;33.63;18.30;;;2.40;99.90;;;;;;4974791;28;20420;-68
2022/03/04 02:30:39;;;;;;;29.33;16.40;;;2.40;99.90;;;;;;4991237;28;20046;-68
2022/03/04 02:33:06;;;;;;;30.70;16.63;;;2.60;99.90;;;;;;5005887;28;20506;-70
2022/03/04 02:35:33;;;;;;;33.67;17.67;;;2.40;99.90;;;;;;5010258;28;20037;-68
2022/03/04 02:37:59;;;;;;;30.60;16.57;;;2.40;99.90;;;;;;5010343;28;20033;-69
2022/03/04 02:40:25;;;;;;;32.63;18.73;;;2.20;99.90;;;;;;5010776;28;20029;-69
2022/03/04 02:42:51;;;;;;;27.67;16.80;;;;;;;;;;5010072;28;20030;-69
2022/03/04 02:45:17;;;;;;;29.43;17.90;;;2.40;99.90;;;;;;5010703;28;20037;-69
2022/03/04 02:47:43;;;;;;;29.47;16.73;;;;;;;;;;5010547;28;20022;-69
2022/03/04 02:50:09;;;;;;;33.93;18.70;;;2.20;99.90;;;;;;4996656;28;20402;-69
2022/03/04 02:52:35;;;;;;;31.73;18.53;;;;;;;;;;5007570;28;20033;-69
2022/03/04 02:55:00;;;;;;;31.10;17.23;;;2.10;99.90;;;;;;5010056;28;20030;-68
2022/03/04 02:57:26;;;;;;;33.17;20.57;;;;;;;;;;5010245;28;20034;-69
2022/03/04 02:59:52;;;;;;;33.73;18.53;;;2.10;99.90;;;;;;5009923;28;20034;-69
2022/03/04 03:02:17;;;;;;;31.43;18.77;;;2.10;99.90;;;;;;5010581;28;20034;-70
2022/03/04 03:04:43;;;;;;;28.63;17.43;;;2.20;99.90;;;;;;5009727;28;20570;-69
2022/03/04 03:07:08;;;;;;;30.23;17.90;;;2.60;99.90;;;;;;5010021;28;20054;-69
2022/03/04 03:09:34;;;;;;;29.37;18.23;;;;;;;;;;4993938;28;20026;-69
2022/03/04 03:12:00;;;;;;;30.97;17.57;;;;;;;;;;4989850;28;20065;-68
2022/03/04 03:14:26;;;;;;;29.77;16.13;;;;;;;;;;4990553;28;20027;-69
2022/03/04 03:16:52;;;;;;;27.97;15.70;;;1.60;99.90;;;;;;4990108;28;20112;-69
2022/03/04 03:19:18;;;;;;;31.60;18.67;;;;;;;;;;4990182;28;20025;-69
2022/03/04 03:21:43;;;;;;;25.67;15.97;;;2.10;99.90;;;;;;4990270;28;20034;-69
2022/03/04 03:24:09;;;;;;;27.70;16.37;;;;;;;;;;5001804;28;20034;-69
2022/03/04 03:26:35;;;;;;;27.60;15.67;;;2.00;99.90;;;;;;5009853;28;20437;-70
2022/03/04 03:29:00;;;;;;;28.87;16.43;;;1.50;99.90;;;;;;5009585;28;20019;-69
2022/03/04 03:31:26;;;;;;;28.40;15.47;;;;;;;;;;5010011;28;20057;-69
2022/03/04 03:33:52;;;;;;;29.20;16.10;;;;;;;;;;5009038;28;20086;-69
2022/03/04 03:36:20;;;;;;;30.50;16.83;;;1.70;99.90;;;;;;5009861;28;20402;-69
2022/03/04 03:38:46;;;;;;;24.87;15.00;;;1.80;99.90;;;;;;4999872;28;20022;-69
2022/03/04 03:41:11;;;;;;;29.43;17.50;;;1.80;99.90;;;;;;4989943;28;20367;-69
2022/03/04 03:43:40;;;;;;;30.13;16.17;;;1.70;99.90;;;;;;4990272;28;20459;-69
2022/03/04 03:46:05;;;;;;;29.77;16.57;;;1.60;99.90;;;;;;4989955;28;20038;-69
2022/03/04 03:48:31;;;;;;;27.17;15.77;;;;;;;;;;4989741;28;20031;-68
2022/03/04 03:50:57;;;;;;;29.67;16.70;;;1.70;99.90;;;;;;4989760;28;20711;-69
2022/03/04 03:53:22;;;;;;;30.37;17.17;;;1.50;99.90;;;;;;4990225;28;20034;-69
2022/03/04 03:55:48;;;;;;;24.90;15.27;;;1.60;99.90;;;;;;4999255;28;20375;-69
2022/03/04 03:58:13;;;;;;;29.27;16.20;;;1.50;99.90;;;;;;5009846;28;20026;-69
2022/03/04 04:00:39;;;;;;;30.53;16.80;;;;;;;;;;4993399;28;20026;-69
2022/03/04 04:03:05;;;;;;;28.63;18.03;;;;;;;;;;4988275;28;20031;-69
2022/03/04 04:05:31;;;;;;;32.43;17.60;;;;;;;;;;4988802;28;20034;-68
2022/03/04 04:07:57;;;;;;;26.03;16.83;;;1.30;99.90;;;;;;5003812;28;20037;-69
2022/03/04 04:10:22;;;;;;;27.23;17.10;;;1.50;99.90;;;;;;5009484;28;20171;-69
2022/03/04 04:12:48;;;;;;;31.70;18.70;;;;;;;;;;4991490;28;20068;-68
2022/03/04 04:15:14;;;;;;;32.20;18.67;;;1.00;99.90;;;;;;5009692;28;20037;-69
2022/03/04 04:17:39;;;;;;;30.77;16.20;;;1.30;99.90;;;;;;5006389;28;20438;-69
2022/03/04 04:20:06;;;;;;;29.13;18.03;;;1.40;99.90;;;;;;4989811;28;20142;-69
2022/03/04 04:22:31;;;;;;;31.70;17.43;;;1.40;99.90;;;;;;4990014;28;20129;-68
2022/03/04 04:24:57;;;;;;;31.13;16.33;;;1.20;99.90;;;;;;4989759;28;20518;-69
2022/03/04 04:27:23;;;;;;;30.40;16.57;;;;;;;;;;5009694;28;20068;-69
2022/03/04 04:29:48;;;;;;;30.73;17.33;;;;;;;;;;5008864;28;20030;-68
2022/03/04 04:32:14;;;;;;;29.10;16.70;;;;;;;;;;5009130;28;20041;-69
2022/03/04 04:34:40;;;;;;;25.03;14.90;;;0.90;99.90;;;;;;5009215;28;20029;-69
2022/03/04 04:37:05;;;;;;;26.13;16.50;;;1.20;99.90;;;;;;5008850;28;20033;-69
2022/03/04 04:39:31;;;;;;;30.33;16.20;;;1.20;99.90;;;;;;4993247;28;20034;-69
2022/03/04 04:41:56;;;;;;;33.30;17.03;;;1.20;99.90;;;;;;4989260;28;20401;-69
2022/03/04 04:44:22;;;;;;;30.50;16.93;;;;;;;;;;4989969;28;20072;-68
2022/03/04 04:46:48;;;;;;;30.33;17.83;;;1.30;99.90;;;;;;4989044;28;20034;-69
2022/03/04 04:49:14;;;;;;;30.47;18.60;;;;;;;;;;4992204;28;20033;-69
2022/03/04 04:51:39;;;;;;;29.73;17.00;;;1.00;99.90;;;;;;4992999;28;20034;-68
2022/03/04 04:54:05;;;;;;;27.70;18.00;;;1.00;99.90;;;;;;5004049;28;20026;-69
2022/03/04 04:56:31;;;;;;;41.23;20.37;;;1.00;99.90;;;;;;5012184;28;20482;-69
2022/03/04 04:58:56;;;;;;;28.50;17.30;;;1.00;99.90;;;;;;5011789;28;20029;-68
2022/03/04 05:01:22;;;;;;;32.30;18.03;;;;;;;;;;5012688;28;20041;-68
2022/03/04 05:03:48;;;;;;;31.10;17.43;;;;;;;;;;5012209;28;20018;-68
2022/03/04 05:06:14;;;;;;;26.17;16.53;;;;;;;;;;5012521;28;20367;-69
2022/03/04 05:08:40;;;;;;;32.20;18.07;;;1.20;99.90;;;;;;5011588;28;20026;-68
2022/03/04 05:11:05;;;;;;;30.37;18.63;;;;;;;;;;5012027;28;20149;-68
2022/03/04 05:13:31;;;;;;;36.10;19.00;;;0.80;99.90;;;;;;5012146;28;20045;-69
2022/03/04 05:15:57;;;;;;;34.40;18.37;;;0.70;99.90;;;;;;5011899;28;20025;-69
2022/03/04 05:18:22;;;;;;;31.23;17.77;;;0.90;99.90;;;;;;5012476;28;20038;-68
2022/03/04 05:20:48;;;;;;;31.10;17.33;;;;;;;;;;5011861;28;20022;-68
2022/03/04 05:23:58;;;;;;;32.30;19.23;;;0.70;99.90;;;;;;5012074;28;20034;-68
2022/03/04 05:26:02;;;;;;;32.07;17.43;;;0.70;99.90;;;;;;4998059;28;20038;-69
2022/03/04 05:28:27;;;;;;;30.53;17.53;;;0.70;99.90;;;;;;4992216;28;20479;-68
2022/03/04 05:30:53;;;;;;;26.90;15.80;;;0.80;99.90;;;;;;4992042;28;20034;-69
2022/03/04 05:33:19;;;;;;;27.83;16.13;;;0.70;99.90;;;;;;4992590;28;20058;-68
2022/03/04 05:35:44;;;;;;;29.63;17.87;;;0.70;99.90;;;;;;4992022;28;20022;-68
2022/03/04 05:38:10;;;;;;;31.47;18.23;;;0.80;99.90;;;;;;4992092;28;20034;-68
2022/03/04 05:40:35;;;;;;;36.13;18.73;;;0.80;99.90;;;;;;4992410;28;20365;-68
2022/03/04 05:43:01;;;;;;;30.53;17.47;;;0.60;99.90;;;;;;4991392;28;20057;-68
2022/03/04 05:45:26;;;;;;;32.43;17.43;;;;;;;;;;4993241;28;20129;-68
2022/03/04 05:47:52;;;;;;;35.43;18.40;;;0.70;99.90;;;;;;4974175;28;20045;-68
2022/03/04 05:50:18;;;;;;;29.53;18.13;;;;;;;;;;4992047;28;20034;-68
2022/03/04 05:52:43;;;;;;;32.40;19.20;;;0.60;99.90;;;;;;4991884;28;20057;-68
2022/03/04 05:55:10;;;;;;;31.37;17.40;;;0.70;99.90;;;;;;4991827;28;20101;-68
2022/03/04 05:57:35;;;;;;;28.00;17.90;;;0.60;99.90;;;;;;4991755;28;20026;-68
2022/03/04 06:00:01;;;;;;;35.10;18.67;;;;;;;;;;5003414;28;20045;-68
2022/03/04 06:02:28;;;;;;;26.47;16.70;;;0.30;99.90;;;;;;5011595;28;20033;-68
2022/03/04 06:04:54;;;;;;;28.23;18.20;;;0.80;99.90;;;;;;5010842;28;20042;-68
2022/03/04 06:07:19;;;;;;;37.83;19.20;;;0.60;99.90;;;;;;5010502;28;20053;-68
2022/03/04 06:09:45;;;;;;;39.30;20.30;;;0.60;99.90;;;;;;4991524;28;20467;-68
2022/03/04 06:12:11;;;;;;;36.53;20.10;;;0.60;99.90;;;;;;4990816;28;20050;-68
2022/03/04 06:14:36;;;;;;;33.30;20.23;;;;;;;;;;5000212;28;20034;-68
2022/03/04 06:17:04;;;;;;;34.70;20.40;;;0.80;99.90;;;;;;4994309;28;20053;-68
2022/03/04 06:19:29;;;;;;;30.43;19.47;;;1.00;99.90;;;;;;4993817;28;20038;-68
2022/03/04 06:21:55;;;;;;;36.13;19.90;;;0.80;99.90;;;;;;4992916;28;20387;-68
2022/03/04 06:24:20;;;;;;;38.13;18.23;;;0.70;99.90;;;;;;5011016;28;20035;-68
2022/03/04 06:26:46;;;;;;;32.53;19.07;;;0.60;99.90;;;;;;5010542;28;20129;-68
2022/03/04 06:29:12;;;;;;;30.53;18.60;;;;;;;;;;5004582;28;20507;-68
2022/03/04 06:31:37;;;;;;;37.27;20.73;;;0.70;99.90;;;;;;4994228;28;20543;-68
2022/03/04 06:34:03;;;;;;;37.07;19.87;;;0.70;99.90;;;;;;5000854;28;20112;-68
2022/03/04 06:36:28;;;;;;;32.40;19.10;;;0.70;99.90;;;;;;5018823;28;20104;-68
2022/03/04 06:38:54;;;;;;;32.83;18.40;;;0.60;99.90;;;;;;5029150;28;20033;-68
2022/03/04 06:41:20;;;;;;;33.10;18.77;;;;;;;;;;5010466;28;20474;-68
2022/03/04 06:43:45;;;;;;;28.60;17.20;;;0.60;99.90;;;;;;5010387;28;20022;-68
2022/03/04 06:46:11;;;;;;;29.13;16.60;;;0.90;99.90;;;;;;5009873;28;20113;-68
2022/03/04 06:48:37;;;;;;;34.90;18.93;;;;;;;;;;5010011;28;20040;-68
2022/03/04 06:51:03;;;;;;;36.00;19.10;;;0.50;99.90;;;;;;5010375;28;20386;-68
2022/03/04 06:53:28;;;;;;;37.27;18.03;;;0.50;99.90;;;;;;5011235;28;20032;-68
2022/03/04 06:55:55;;;;;;;34.77;19.20;;;;;;;;;;5007761;28;20030;-68
2022/03/04 06:58:21;;;;;;;34.20;19.93;;;;;;;;;;5000461;28;20026;-68
2022/03/04 07:00:47;;;;;;;34.50;18.43;;;0.70;99.90;;;;;;5009840;28;20037;-68
2022/03/04 07:03:13;;;;;;;34.10;19.47;;;0.50;99.90;;;;;;5009814;28;20025;-68
2022/03/04 07:05:40;;;;;;;36.63;19.93;;;;;;;;;;5010395;28;20128;-68
2022/03/04 07:08:11;;;;;;;38.43;20.27;;;0.70;99.90;;;;;;5009887;28;20034;-70
2022/03/04 07:10:37;;;;;;;35.73;19.67;;;0.80;99.90;;;;;;5009430;28;20037;-69
2022/03/04 07:13:03;;;;;;;28.20;17.67;;;0.50;99.90;;;;;;5009007;28;20053;-70
2022/03/04 07:15:29;;;;;;;32.67;20.43;;;1.10;99.90;;;;;;5010075;28;20026;-70
2022/03/04 07:17:55;;;;;;;40.30;21.43;;;;;;;;;;5009807;28;20026;-69
2022/03/04 07:20:20;;;;;;;34.67;19.80;;;;;;;;;;5010005;28;20029;-69
2022/03/04 07:22:46;;;;;;;33.07;19.80;;;1.00;99.90;;;;;;5009948;28;20034;-71
2022/03/04 07:25:15;;;;;;;35.10;19.57;;;1.00;99.90;;;;;;4991579;28;20045;-69
2022/03/04 07:27:41;;;;;;;32.63;18.33;;;1.00;99.90;;;;;;5011008;28;20030;-69
2022/03/04 07:30:12;;;;;;;32.50;19.43;;;1.10;99.90;;;;;;5029305;28;20040;-69
2022/03/04 07:32:39;;;;;;;35.37;19.67;;;1.30;99.90;;;;;;5029841;28;20123;-69
2022/03/04 07:35:07;;;;;;;35.70;18.53;;;1.20;99.90;;;;;;5029422;28;20022;-69
2022/03/04 07:37:36;;;;;;;32.93;21.77;;;1.20;99.90;;;;;;5029507;28;20474;-69
2022/03/04 07:40:06;;;;;;;34.87;19.13;;;1.30;99.90;;;;;;5028712;28;20029;-69
2022/03/04 07:42:32;;;;;;;36.13;19.40;;;;;;;;;;5029315;28;20033;-69
2022/03/04 07:44:58;;;;;;;31.10;19.23;;;;;;;;;;5003856;28;20035;-69
2022/03/04 07:47:23;;;;;;;31.43;18.33;;;1.40;99.90;;;;;;4990420;28;20048;-69
2022/03/04 07:49:49;;;;;;;31.43;18.67;;;1.60;99.90;;;;;;4989852;28;20468;-69
2022/03/04 07:52:15;;;;;;;34.40;19.20;;;1.70;99.90;;;;;;4990121;28;20463;-69
2022/03/04 07:54:41;;;;;;;31.60;19.30;;;;;;;;;;4989426;28;20077;-69
2022/03/04 07:57:07;;;;;;;30.57;17.57;;;1.70;99.90;;;;;;4989983;28;20081;-69
2022/03/04 07:59:33;;;;;;;36.37;21.03;;;1.70;99.90;;;;;;4998640;28;20029;-69
2022/03/04 08:01:58;;;;;;;31.63;18.43;;;1.70;99.90;;;;;;5009032;28;20534;-68
2022/03/04 08:04:24;;;;;;;35.07;19.07;;;;;;;;;;5000372;28;20407;-69
2022/03/04 08:06:50;;;;;;;33.07;18.83;;;1.70;99.90;;;;;;5005052;28;20042;-69
2022/03/04 08:09:16;;;;;;;37.00;20.83;;;;;;;;;;5009255;28;20030;-69
2022/03/04 08:11:44;;;;;;;36.70;21.33;;;1.80;99.90;;;;;;5009153;28;20426;-69
2022/03/04 08:14:09;;;;;;;33.57;20.13;;;1.80;99.90;;;;;;5009118;28;20538;-69
2022/03/04 08:16:35;;;;;;;32.53;18.63;;;;;;;;;;4990640;28;20116;-69
2022/03/04 08:19:03;;;;;;;33.87;20.57;;;1.90;99.90;;;;;;5008727;28;20502;-69
2022/03/04 08:21:29;;;;;;;35.37;20.37;;;2.20;99.90;;;;;;5009617;28;20030;-68
2022/03/04 08:23:55;;;;;;;39.27;20.43;;;;;;;;;;5010050;28;20038;-68
2022/03/04 08:26:20;;;;;;;26.87;17.50;;;2.20;99.90;;;;;;5013124;28;20038;-69
2022/03/04 08:28:46;;;;;;;34.70;19.40;;;;;;;;;;5012772;28;20110;-70
2022/03/04 08:31:12;;;;;;;37.40;20.73;;;2.50;99.90;;;;;;5012110;28;20121;-69
2022/03/04 08:33:38;;;;;;;36.23;21.00;;;;;;;;;;5012825;28;20526;-70
2022/03/04 08:36:05;;;;;;;31.17;19.30;;;2.50;99.90;;;;;;5012774;28;20026;-69
2022/03/04 08:38:31;;;;;;;39.00;21.27;;;;;;;;;;5012264;28;20029;-70
2022/03/04 08:40:56;;;;;;;35.80;20.73;;;2.30;99.90;;;;;;4993468;28;20034;-69
2022/03/04 08:43:22;;;;;;;34.43;19.47;;;;;;;;;;5013198;28;20354;-69
2022/03/04 08:45:48;;;;;;;32.43;18.93;;;;;;;;;;5010895;28;20033;-69
2022/03/04 08:48:14;;;;;;;33.40;19.83;;;2.60;99.90;;;;;;5012832;28;20367;-69
2022/03/04 08:50:39;;;;;;;32.93;19.43;;;2.60;99.90;;;;;;5012679;28;20415;-69
2022/03/04 08:53:05;;;;;;;35.67;21.27;;;2.80;99.90;;;;;;5012341;28;20049;-69
2022/03/04 08:55:31;;;;;;;33.63;20.10;;;;;;;;;;5012668;28;20438;-70
2022/03/04 08:57:58;;;;;;;33.40;19.13;;;2.90;99.90;;;;;;5011792;28;20026;-69
2022/03/04 09:00:24;;;;;;;35.23;20.17;;;3.30;99.90;;;;;;5012951;28;20084;-69
2022/03/04 09:02:50;;;;;;;34.67;20.37;;;2.90;99.90;;;;;;4992835;28;20034;-69
2022/03/04 09:05:15;;;;;;;29.57;19.53;;;3.10;99.90;;;;;;4993105;28;20026;-70
2022/03/04 09:07:41;;;;;;;34.53;20.57;;;3.20;99.90;;;;;;4974655;28;20502;-69
2022/03/04 09:10:08;;;;;;;30.27;19.43;;;3.20;99.90;;;;;;4992524;28;20035;-69
2022/03/04 09:12:34;;;;;;;35.20;19.70;;;3.50;99.90;;;;;;4992431;28;20294;-70
2022/03/04 09:15:00;;;;;;;37.97;19.67;;;;;;;;;;4991872;28;20435;-70
2022/03/04 09:17:25;;;;;;;34.80;19.03;;;3.50;99.90;;;;;;5007493;28;20022;-70
2022/03/04 09:19:51;;;;;;;31.50;19.93;;;;;;;;;;5011675;28;20395;-69
2022/03/04 09:22:17;;;;;;;31.00;18.30;;;3.30;99.90;;;;;;5011732;28;20026;-70
2022/03/04 09:24:42;;;;;;;30.90;19.30;;;3.60;99.90;;;;;;5011932;28;20064;-70
2022/03/04 09:27:08;;;;;;;31.83;19.90;;;3.70;99.90;;;;;;4993994;28;20153;-69
2022/03/04 09:29:34;;;;;;;32.23;18.10;;;3.80;99.90;;;;;;5012020;28;20014;-70
2022/03/04 09:32:00;;;;;;;31.20;18.53;;;3.90;99.90;;;;;;5000533;28;20106;-69
2022/03/04 09:34:26;;;;;;;34.27;19.70;;;;;;;;;;4974480;28;20022;-69
2022/03/04 09:36:52;;;;;;;32.13;18.73;;;;;;;;;;4991877;28;20037;-69
2022/03/04 09:39:17;;;;;;;30.07;17.47;;;3.90;99.90;;;;;;4996293;28;20391;-69
2022/03/04 09:41:45;;;;;;;32.20;18.70;;;3.90;99.90;;;;;;5009822;28;20033;-69
2022/03/04 09:44:12;;;;;;;27.67;17.63;;;4.00;99.90;;;;;;5009086;28;20029;-69
2022/03/04 09:46:40;;;;;;;30.03;16.73;;;4.00;99.90;;;;;;5011216;28;20041;-70
2022/03/04 09:49:07;;;;;;;32.87;20.83;;;4.20;99.90;;;;;;5010383;28;20053;-69
2022/03/04 09:51:32;;;;;;;34.27;20.87;;;4.30;99.90;;;;;;5011668;28;20034;-69
2022/03/04 09:53:58;;;;;;;28.17;18.07;;;4.20;99.90;;;;;;5011142;28;20088;-68
2022/03/04 09:56:24;;;;;;;29.13;17.70;;;;;;;;;;5011834;28;20037;-69
2022/03/04 09:58:49;;;;;;;30.60;18.97;;;4.00;99.90;;;;;;5011204;28;20026;-69
2022/03/04 10:01:16;;;;;;;32.83;20.83;;;4.30;99.90;;;;;;5011522;28;20386;-69
2022/03/04 10:03:49;;;;;;;34.20;19.10;;;4.40;99.90;;;;;;5006361;28;20045;-69
2022/03/04 10:06:17;;;;;;;31.63;18.83;;;4.60;99.90;;;;;;4991897;28;20049;-69
2022/03/04 10:08:48;;;;;;;33.03;19.40;;;4.70;99.90;;;;;;4998299;28;20080;-69
2022/03/04 10:11:27;;;;;;;30.77;19.03;;;4.70;99.90;;;;;;4993736;28;20050;-69
2022/03/04 10:13:56;;;;;;;33.83;19.83;;;4.60;99.90;;;;;;5011055;28;20062;-69
2022/03/04 10:16:25;;;;;;;31.03;18.40;;;4.80;99.90;;;;;;5008131;28;20026;-69
2022/03/04 10:19:14;;;;;;;31.07;19.63;;;4.90;99.90;;;;;;5004665;28;20057;-68
2022/03/04 10:22:00;;;;;;;30.77;18.63;;;4.90;99.90;;;;;;5011186;28;20128;-69
2022/03/04 10:24:31;;;;;;;27.80;18.37;;;5.00;99.90;;;;;;5011101;28;20022;-68
2022/03/04 10:27:07;;;;;;;26.70;17.27;;;5.20;99.90;;;;;;5010220;28;20073;-69
2022/03/04 10:29:35;;;;;;;30.17;19.27;;;5.30;99.90;;;;;;5010862;28;20399;-68
2022/03/04 10:32:15;;;;;;;26.80;16.23;;;5.10;99.90;;;;;;5010566;28;20025;-69
2022/03/04 10:34:52;;;;;;;25.73;18.17;;;5.40;99.90;;;;;;5010255;28;20167;-69
2022/03/04 10:37:22;;;;;;;30.30;17.27;;;5.30;99.90;;;;;;5010189;28;20743;-69
2022/03/04 10:40:05;;;;;;;29.70;18.33;;;5.40;99.90;;;;;;4991028;28;20034;-69
2022/03/04 10:43:01;;;;;;;27.00;16.77;;;5.20;99.90;;;;;;4991287;28;20042;-69
2022/03/04 10:45:44;;;;;;;35.43;19.07;;;5.40;98.70;;;;;;4990605;28;20022;-69
2022/03/04 10:48:14;;;;;;;31.07;17.93;;;5.50;98.50;;;;;;4974675;28;20039;-69
2022/03/04 10:50:45;;;;;;;32.53;18.43;;;5.50;99.90;;;;;;4990830;28;20049;-69
2022/03/04 10:53:16;;;;;;;31.57;19.73;;;5.60;99.90;;;;;;4981017;28;20104;-69
2022/03/04 10:55:45;;;;;;;28.53;17.77;;;5.60;99.90;;;;;;5010230;28;20108;-69
2022/03/04 10:58:23;;;;;;;30.07;18.43;;;5.70;99.90;;;;;;5010882;28;20368;-70
2022/03/04 11:00:54;;;;;;;29.77;19.73;;;5.80;97.90;;;;;;5009909;28;20030;-69
2022/03/04 11:03:21;;;;;;;30.03;20.13;;;5.80;98.30;;;;;;5010125;28;20372;-70
2022/03/04 11:05:52;;;;;;;34.60;20.07;;;5.80;98.90;;;;;;4992480;28;20038;-68
2022/03/04 11:08:20;;;;;;;28.70;19.00;;;6.00;99.90;;;;;;5006708;28;20076;-68
2022/03/04 11:10:46;;;;;;;29.33;18.37;;;6.00;99.80;;;;;;4990924;28;20084;-68
2022/03/04 11:13:12;;;;;;;30.30;19.03;;;6.20;99.90;;;;;;5002140;28;20034;-68
2022/03/04 11:15:38;;;;;;;26.40;18.60;;;5.80;99.90;;;;;;5002098;28;20371;-68
2022/03/04 11:18:09;;;;;;;30.57;18.47;;;6.10;96.90;;;;;;4990018;28;20031;-69
2022/03/04 11:20:36;;;;;;;32.07;19.10;;;6.00;99.40;;;;;;4998981;28;20057;-69
2022/03/04 11:23:02;;;;;;;28.50;18.23;;;6.10;99.90;;;;;;5009104;28;20034;-69
2022/03/04 11:25:38;;;;;;;28.87;18.40;;;6.10;99.90;;;;;;5010143;28;20094;-69
2022/03/04 11:28:13;;;;;;;25.93;17.27;;;6.30;99.90;;;;;;4990878;28;20042;-69
2022/03/04 11:30:43;;;;;;;32.17;19.10;;;6.20;97.10;;;;;;5009716;28;20022;-69
2022/03/04 11:33:15;;;;;;;27.07;18.40;;;6.30;99.90;;;;;;5010059;28;20041;-69
2022/03/04 11:36:02;;;;;;;29.53;18.10;;;6.30;99.90;;;;;;5009882;28;20399;-69
2022/03/04 11:38:46;;;;;;;33.77;19.97;;;6.60;99.90;;;;;;5010108;28;20026;-69
2022/03/04 11:41:17;;;;;;;32.70;19.42;;;6.50;96.10;;;;;;5009570;28;20033;-69
2022/03/04 11:43:48;;;;;;;26.70;18.40;;;6.60;99.90;;;;;;5007058;28;20038;-68
2022/03/04 11:46:21;;;;;;;30.87;19.33;;;6.40;99.90;;;;;;4989702;28;20034;-68
2022/03/04 11:48:48;;;;;;;28.95;18.25;;;6.40;99.90;;;;;;4988958;28;20379;-68
2022/03/04 11:51:16;;;;;;;27.40;16.70;;;6.70;99.90;;;;;;4989365;28;20065;-68
2022/03/04 11:53:41;;;;;;;31.03;17.37;;;6.70;99.90;;;;;;4989134;28;20023;-68
2022/03/04 11:56:15;;;;;;;26.97;17.33;;;6.60;95.20;;;;;;4988589;28;20772;-68
2022/03/04 11:58:59;;;;;;;26.48;17.17;;;6.70;95.20;;;;;;4991728;28;20030;-68
2022/03/04 12:01:35;;;;;;;24.25;15.18;;;6.70;99.90;;;;;;4991713;28;20088;-68
2022/03/04 12:04:12;;;;;;;26.13;17.37;;;6.80;99.90;;;;;;4992266;28;20553;-68
2022/03/04 12:06:38;;;;;;;28.43;19.90;;;6.70;95.60;;;;;;4993083;28;20034;-68
2022/03/04 12:09:30;;;;;;;29.33;17.50;;;6.70;99.90;;;;;;5005681;28;20084;-68
2022/03/04 12:12:12;;;;;;;31.40;17.70;;;6.70;99.90;;;;;;5012624;28;20395;-68
2022/03/04 12:14:42;;;;;;;26.57;16.60;;;7.00;96.70;;;;;;5013250;28;20022;-68
2022/03/04 12:17:08;;;;;;;30.83;19.67;;;;;;;;;;5013390;28;20075;-70
2022/03/04 12:19:34;;;;;;;26.37;18.70;;;7.10;94.40;;;;;;5013380;28;20091;-69
2022/03/04 12:22:00;;;;;;;27.73;19.63;;;6.90;99.90;;;;;;5005521;28;20022;-68
2022/03/04 12:24:28;;;;;;;27.63;18.37;;;7.40;99.90;;;;;;5008344;28;20387;-67
2022/03/04 12:26:54;;;;;;;27.97;18.73;;;7.20;98.20;;;;;;5000568;28;20369;-67
2022/03/04 12:29:21;;;;;;;28.80;19.30;;;7.10;99.90;;;;;;4993114;28;20034;-68
2022/03/04 12:31:48;;;;;;;28.83;18.37;;;;;;;;;;5012025;28;20026;-68
2022/03/04 12:34:22;;;;;;;27.30;18.07;;;7.40;99.90;;;;;;5013455;28;20110;-68
2022/03/04 12:36:50;;;;;;;29.60;19.00;;;7.60;99.50;;;;;;5001112;28;20030;-68
2022/03/04 12:39:17;;;;;;;24.23;16.83;;;7.60;99.90;;;;;;5013197;28;20475;-68
2022/03/04 12:41:43;;;;;;;26.10;17.70;;;;;;;;;;5012986;28;20026;-68
2022/03/04 12:44:09;;;;;;;24.67;16.20;;;7.70;98.10;;;;;;5004182;28;20041;-68
2022/03/04 12:46:37;;;;;;;23.53;16.67;;;7.70;99.90;;;;;;5001111;28;20054;-68
2022/03/04 12:49:05;;;;;;;25.83;17.60;;;7.40;99.90;;;;;;4975647;28;20146;-68
2022/03/04 12:51:33;;;;;;;26.90;16.80;;;7.70;99.60;;;;;;5011183;28;20036;-68
2022/03/04 12:54:12;;;;;;;25.00;17.00;;;7.80;99.20;;;;;;5012460;28;20030;-68
2022/03/04 12:56:40;;;;;;;26.70;19.53;;;7.70;98.60;;;;;;5013251;28;20026;-68
2022/03/04 12:59:08;;;;;;;26.43;18.83;;;7.70;98.20;;;;;;5012219;28;20093;-68
2022/03/04 13:01:33;;;;;;;26.67;17.53;;;7.90;97.90;;;;;;5012701;28;20034;-68